sensor_id;sensor_type;location;lat;lon;timestamp;pressure;altitude;pressure_sealevel;temperature;humidity
68399;BME280;56258;52.196;13.868;2023-02-20T00:00:33;101803.53;;;19.87;34.84
68399;BME280;56258;52.196;13.868;2023-02-20T00:03:00;101799.28;;;19.85;34.82
68399;BME280;56258;52.196;13.868;2023-02-20T00:05:26;101802.00;;;19.85;35.07
68399;BME280;56258;52.196;13.868;2023-02-20T00:07:53;101798.66;;;19.91;35.30
68399;BME280;56258;52.196;13.868;2023-02-20T00:10:20;101803.97;;;20.00;35.27
68399;BME280;56258;52.196;13.868;2023-02-20T00:12:46;101800.53;;;20.16;34.75
68399;BME280;56258;52.196;13.868;2023-02-20T00:15:15;101805.03;;;20.33;34.98
68399;BME280;56258;52.196;13.868;2023-02-20T00:17:42;101803.25;;;20.42;34.71
68399;BME280;56258;52.196;13.868;2023-02-20T00:20:10;101801.44;;;20.51;34.75
68399;BME280;56258;52.196;13.868;2023-02-20T00:22:36;101799.47;;;20.69;34.38
68399;BME280;56258;52.196;13.868;2023-02-20T00:25:03;101793.44;;;20.83;34.45
68399;BME280;56258;52.196;13.868;2023-02-20T00:27:30;101803.28;;;20.92;33.54
68399;BME280;56258;52.196;13.868;2023-02-20T00:29:56;101787.09;;;21.01;33.63
68399;BME280;56258;52.196;13.868;2023-02-20T00:32:23;101782.88;;;21.06;33.96
68399;BME280;56258;52.196;13.868;2023-02-20T00:34:50;101787.13;;;21.09;33.97
68399;BME280;56258;52.196;13.868;2023-02-20T00:37:16;101774.28;;;21.11;33.44
68399;BME280;56258;52.196;13.868;2023-02-20T00:39:43;101766.19;;;21.19;33.48
68399;BME280;56258;52.196;13.868;2023-02-20T00:42:10;101754.50;;;21.18;33.43
68399;BME280;56258;52.196;13.868;2023-02-20T00:44:36;101749.66;;;21.38;33.49
68399;BME280;56258;52.196;13.868;2023-02-20T00:47:03;101748.66;;;21.31;33.42
68399;BME280;56258;52.196;13.868;2023-02-20T00:49:29;101741.34;;;21.23;33.18
68399;BME280;56258;52.196;13.868;2023-02-20T00:51:56;101744.56;;;21.27;33.79
68399;BME280;56258;52.196;13.868;2023-02-20T00:54:23;101740.69;;;21.30;33.47
68399;BME280;56258;52.196;13.868;2023-02-20T00:56:49;101737.16;;;21.37;33.77
68399;BME280;56258;52.196;13.868;2023-02-20T00:59:16;101744.59;;;21.43;33.63
68399;BME280;56258;52.196;13.868;2023-02-20T01:01:43;101741.91;;;21.43;33.81
68399;BME280;56258;52.196;13.868;2023-02-20T01:04:09;101743.91;;;21.41;33.76
68399;BME280;56258;52.196;13.868;2023-02-20T01:06:36;101747.31;;;21.43;33.99
68399;BME280;56258;52.196;13.868;2023-02-20T01:09:03;101745.09;;;21.47;33.57
68399;BME280;56258;52.196;13.868;2023-02-20T01:11:29;101738.84;;;21.46;33.31
68399;BME280;56258;52.196;13.868;2023-02-20T01:13:56;101735.13;;;21.55;33.30
68399;BME280;56258;52.196;13.868;2023-02-20T01:16:23;101735.13;;;21.55;33.68
68399;BME280;56258;52.196;13.868;2023-02-20T01:18:50;101728.03;;;21.54;33.09
68399;BME280;56258;52.196;13.868;2023-02-20T01:21:17;101719.56;;;21.58;33.34
68399;BME280;56258;52.196;13.868;2023-02-20T01:23:44;101716.19;;;21.55;33.22
68399;BME280;56258;52.196;13.868;2023-02-20T01:26:10;101709.59;;;21.58;32.97
68399;BME280;56258;52.196;13.868;2023-02-20T01:28:38;101704.34;;;21.57;33.03
68399;BME280;56258;52.196;13.868;2023-02-20T01:31:06;101692.16;;;21.52;33.10
68399;BME280;56258;52.196;13.868;2023-02-20T01:33:33;101692.84;;;21.54;32.97
68399;BME280;56258;52.196;13.868;2023-02-20T01:35:59;101686.44;;;21.55;33.09
68399;BME280;56258;52.196;13.868;2023-02-20T01:38:26;101692.81;;;21.63;33.44
68399;BME280;56258;52.196;13.868;2023-02-20T01:40:53;101694.50;;;21.64;32.94
68399;BME280;56258;52.196;13.868;2023-02-20T01:43:19;101693.66;;;21.63;33.61
68399;BME280;56258;52.196;13.868;2023-02-20T01:45:46;101688.78;;;21.67;33.18
68399;BME280;56258;52.196;13.868;2023-02-20T01:48:30;101690.13;;;21.71;32.69
68399;BME280;56258;52.196;13.868;2023-02-20T01:50:59;101680.63;;;21.75;33.46
68399;BME280;56258;52.196;13.868;2023-02-20T01:53:27;101675.22;;;21.75;33.07
68399;BME280;56258;52.196;13.868;2023-02-20T01:56:01;101673.69;;;21.72;33.48
68399;BME280;56258;52.196;13.868;2023-02-20T01:58:41;101669.47;;;21.78;33.37
68399;BME280;56258;52.196;13.868;2023-02-20T02:01:10;101658.47;;;21.79;33.12
68399;BME280;56258;52.196;13.868;2023-02-20T02:03:40;101653.06;;;21.79;32.78
68399;BME280;56258;52.196;13.868;2023-02-20T02:06:09;101640.38;;;21.80;33.06
68399;BME280;56258;52.196;13.868;2023-02-20T02:08:38;101634.25;;;21.86;32.86
68399;BME280;56258;52.196;13.868;2023-02-20T02:11:08;101638.63;;;21.87;32.99
68399;BME280;56258;52.196;13.868;2023-02-20T02:13:37;101622.25;;;21.89;33.13
68399;BME280;56258;52.196;13.868;2023-02-20T02:16:28;101619.53;;;21.89;33.16
68399;BME280;56258;52.196;13.868;2023-02-20T02:19:18;101612.25;;;21.89;33.03
68399;BME280;56258;52.196;13.868;2023-02-20T02:27:58;101614.78;;;21.91;33.34
68399;BME280;56258;52.196;13.868;2023-02-20T02:30:52;101620.19;;;21.91;33.23
68399;BME280;56258;52.196;13.868;2023-02-20T02:39:41;101627.44;;;21.98;33.01
68399;BME280;56258;52.196;13.868;2023-02-20T02:42:28;101622.84;;;21.99;32.53
68399;BME280;56258;52.196;13.868;2023-02-20T02:47:59;101609.16;;;22.00;32.21
68399;BME280;56258;52.196;13.868;2023-02-20T02:50:34;101606.78;;;21.97;32.67
68399;BME280;56258;52.196;13.868;2023-02-20T02:53:07;101596.97;;;21.96;33.10
68399;BME280;56258;52.196;13.868;2023-02-20T02:55:34;101596.13;;;21.96;33.12
68399;BME280;56258;52.196;13.868;2023-02-20T02:58:03;101582.59;;;21.96;33.16
68399;BME280;56258;52.196;13.868;2023-02-20T03:00:34;101581.72;;;22.03;32.94
68399;BME280;56258;52.196;13.868;2023-02-20T03:03:09;101577.16;;;22.04;32.98
68399;BME280;56258;52.196;13.868;2023-02-20T03:05:44;101571.75;;;22.04;32.25
68399;BME280;56258;52.196;13.868;2023-02-20T03:08:26;101579.88;;;22.04;32.51
68399;BME280;56258;52.196;13.868;2023-02-20T03:11:12;101570.19;;;22.09;32.28
68399;BME280;56258;52.196;13.868;2023-02-20T03:13:43;101576.47;;;22.10;32.91
68399;BME280;56258;52.196;13.868;2023-02-20T03:16:48;101573.09;;;22.08;33.07
68399;BME280;56258;52.196;13.868;2023-02-20T03:19:22;101563.28;;;22.07;32.81
68399;BME280;56258;52.196;13.868;2023-02-20T03:21:54;101565.47;;;22.03;33.04
68399;BME280;56258;52.196;13.868;2023-02-20T03:24:24;101574.63;;;22.02;32.56
68399;BME280;56258;52.196;13.868;2023-02-20T03:26:54;101562.06;;;22.09;32.61
68399;BME280;56258;52.196;13.868;2023-02-20T03:29:26;101558.84;;;22.14;32.51
68399;BME280;56258;52.196;13.868;2023-02-20T03:32:03;101547.28;;;22.20;32.21
68399;BME280;56258;52.196;13.868;2023-02-20T03:34:52;101549.06;;;22.36;32.47
68399;BME280;56258;52.196;13.868;2023-02-20T03:37:40;101548.78;;;22.23;32.32
68399;BME280;56258;52.196;13.868;2023-02-20T03:40:28;101544.34;;;21.99;32.96
68399;BME280;56258;52.196;13.868;2023-02-20T03:43:17;101538.53;;;21.79;33.43
68399;BME280;56258;52.196;13.868;2023-02-20T03:45:51;101533.16;;;21.63;33.03
68399;BME280;56258;52.196;13.868;2023-02-20T03:48:22;101527.28;;;21.51;32.86
68399;BME280;56258;52.196;13.868;2023-02-20T03:50:51;101509.56;;;21.40;32.94
68399;BME280;56258;52.196;13.868;2023-02-20T03:53:18;101499.47;;;21.34;33.50
68399;BME280;56258;52.196;13.868;2023-02-20T03:55:46;101510.13;;;21.27;33.77
68399;BME280;56258;52.196;13.868;2023-02-20T03:58:14;101522.47;;;21.22;33.71
68399;BME280;56258;52.196;13.868;2023-02-20T04:00:46;101516.72;;;21.17;33.54
68399;BME280;56258;52.196;13.868;2023-02-20T04:03:20;101520.13;;;21.11;33.53
68399;BME280;56258;52.196;13.868;2023-02-20T04:05:50;101515.06;;;21.08;33.28
68399;BME280;56258;52.196;13.868;2023-02-20T04:11:05;101512.19;;;21.01;33.44
68399;BME280;56258;52.196;13.868;2023-02-20T04:13:34;101532.31;;;20.98;33.51
68399;BME280;56258;52.196;13.868;2023-02-20T04:16:03;101514.41;;;20.97;33.77
68399;BME280;56258;52.196;13.868;2023-02-20T04:18:30;101510.16;;;20.95;33.67
68399;BME280;56258;52.196;13.868;2023-02-20T04:20:59;101517.59;;;20.93;33.69
68399;BME280;56258;52.196;13.868;2023-02-20T04:23:28;101511.03;;;20.87;33.75
68399;BME280;56258;52.196;13.868;2023-02-20T04:26:01;101507.66;;;20.85;33.60
68399;BME280;56258;52.196;13.868;2023-02-20T04:28:30;101494.47;;;20.82;33.59
68399;BME280;56258;52.196;13.868;2023-02-20T04:30:57;101499.22;;;20.80;33.58
68399;BME280;56258;52.196;13.868;2023-02-20T04:33:24;101501.41;;;20.77;33.85
68399;BME280;56258;52.196;13.868;2023-02-20T04:35:51;101492.13;;;20.71;33.38
68399;BME280;56258;52.196;13.868;2023-02-20T04:38:19;101482.31;;;20.70;33.86
68399;BME280;56258;52.196;13.868;2023-02-20T04:40:46;101473.56;;;20.60;33.61
68399;BME280;56258;52.196;13.868;2023-02-20T04:43:12;101471.53;;;20.54;34.14
68399;BME280;56258;52.196;13.868;2023-02-20T04:45:39;101469.50;;;20.48;34.31
68399;BME280;56258;52.196;13.868;2023-02-20T04:48:05;101459.72;;;20.47;33.78
68399;BME280;56258;52.196;13.868;2023-02-20T04:50:33;101449.44;;;20.42;34.11
68399;BME280;56258;52.196;13.868;2023-02-20T04:53:00;101454.66;;;20.44;33.83
68399;BME280;56258;52.196;13.868;2023-02-20T04:55:27;101451.75;;;20.37;33.36
68399;BME280;56258;52.196;13.868;2023-02-20T04:57:54;101456.31;;;20.36;34.39
68399;BME280;56258;52.196;13.868;2023-02-20T05:00:25;101460.03;;;20.35;33.62
68399;BME280;56258;52.196;13.868;2023-02-20T05:02:51;101445.50;;;20.36;33.52
68399;BME280;56258;52.196;13.868;2023-02-20T05:05:23;101443.31;;;20.32;34.15
68399;BME280;56258;52.196;13.868;2023-02-20T05:07:55;101442.13;;;20.34;34.11
68399;BME280;56258;52.196;13.868;2023-02-20T05:10:22;101435.03;;;20.33;34.20
68399;BME280;56258;52.196;13.868;2023-02-20T05:12:50;101419.03;;;20.32;34.04
68399;BME280;56258;52.196;13.868;2023-02-20T05:15:18;101414.28;;;20.34;34.13
68399;BME280;56258;52.196;13.868;2023-02-20T05:17:45;101406.34;;;20.32;34.19
68399;BME280;56258;52.196;13.868;2023-02-20T05:20:12;101400.47;;;20.29;33.93
68399;BME280;56258;52.196;13.868;2023-02-20T05:22:39;101394.88;;;20.30;33.89
68399;BME280;56258;52.196;13.868;2023-02-20T05:25:06;101380.72;;;20.28;34.20
68399;BME280;56258;52.196;13.868;2023-02-20T05:27:32;101374.66;;;20.26;33.85
68399;BME280;56258;52.196;13.868;2023-02-20T05:30:00;101374.78;;;20.25;34.02
68399;BME280;56258;52.196;13.868;2023-02-20T05:32:28;101367.88;;;20.22;33.83
68399;BME280;56258;52.196;13.868;2023-02-20T05:34:55;101358.94;;;20.22;33.79
68399;BME280;56258;52.196;13.868;2023-02-20T05:37:24;101367.38;;;20.19;33.90
68399;BME280;56258;52.196;13.868;2023-02-20T05:39:52;101361.16;;;20.18;34.38
68399;BME280;56258;52.196;13.868;2023-02-20T05:42:19;101362.16;;;20.17;34.51
68399;BME280;56258;52.196;13.868;2023-02-20T05:44:46;101358.94;;;20.14;33.94
68399;BME280;56258;52.196;13.868;2023-02-20T05:47:15;101359.47;;;20.17;34.21
68399;BME280;56258;52.196;13.868;2023-02-20T05:49:42;101357.78;;;20.16;34.34
68399;BME280;56258;52.196;13.868;2023-02-20T05:52:10;101355.09;;;20.16;34.04
68399;BME280;56258;52.196;13.868;2023-02-20T05:54:39;101351.69;;;20.14;33.78
68399;BME280;56258;52.196;13.868;2023-02-20T05:57:06;101364.88;;;20.17;33.77
68399;BME280;56258;52.196;13.868;2023-02-20T05:59:33;101365.19;;;20.14;34.42
68399;BME280;56258;52.196;13.868;2023-02-20T06:02:00;101362.66;;;20.13;33.88
68399;BME280;56258;52.196;13.868;2023-02-20T06:04:27;101356.41;;;20.12;34.61
68399;BME280;56258;52.196;13.868;2023-02-20T06:06:54;101354.72;;;20.11;34.05
68399;BME280;56258;52.196;13.868;2023-02-20T06:09:21;101359.47;;;20.09;34.22
68399;BME280;56258;52.196;13.868;2023-02-20T06:11:53;101361.31;;;20.08;33.87
68399;BME280;56258;52.196;13.868;2023-02-20T06:14:22;101349.84;;;20.06;34.47
68399;BME280;56258;52.196;13.868;2023-02-20T06:16:49;101341.75;;;20.06;34.54
68399;BME280;56258;52.196;13.868;2023-02-20T06:19:18;101342.41;;;20.08;34.31
68399;BME280;56258;52.196;13.868;2023-02-20T06:21:48;101346.13;;;20.07;34.40
68399;BME280;56258;52.196;13.868;2023-02-20T06:24:16;101331.97;;;20.05;34.51
68399;BME280;56258;52.196;13.868;2023-02-20T06:26:43;101327.25;;;20.07;34.19
68399;BME280;56258;52.196;13.868;2023-02-20T06:29:11;101326.41;;;20.07;34.46
68399;BME280;56258;52.196;13.868;2023-02-20T06:31:38;101320.66;;;20.10;34.36
68399;BME280;56258;52.196;13.868;2023-02-20T06:34:06;101304.09;;;20.13;34.59
68399;BME280;56258;52.196;13.868;2023-02-20T06:36:36;101294.50;;;20.10;34.49
68399;BME280;56258;52.196;13.868;2023-02-20T06:39:05;101289.78;;;20.13;34.67
68399;BME280;56258;52.196;13.868;2023-02-20T06:41:31;101284.53;;;20.11;34.37
68399;BME280;56258;52.196;13.868;2023-02-20T06:43:58;101285.69;;;20.25;34.41
68399;BME280;56258;52.196;13.868;2023-02-20T06:46:25;101297.19;;;20.27;34.48
68399;BME280;56258;52.196;13.868;2023-02-20T06:48:54;101308.84;;;20.27;34.11
68399;BME280;56258;52.196;13.868;2023-02-20T06:51:26;101317.09;;;20.26;34.31
68399;BME280;56258;52.196;13.868;2023-02-20T06:53:54;101301.91;;;20.25;34.37
68399;BME280;56258;52.196;13.868;2023-02-20T06:56:24;101304.44;;;20.26;34.05
68399;BME280;56258;52.196;13.868;2023-02-20T06:58:52;101308.13;;;20.25;34.28
68399;BME280;56258;52.196;13.868;2023-02-20T07:01:20;101308.31;;;20.24;34.16
68399;BME280;56258;52.196;13.868;2023-02-20T07:03:48;101296.66;;;20.23;34.34
68399;BME280;56258;52.196;13.868;2023-02-20T07:06:15;101286.88;;;20.22;34.56
68399;BME280;56258;52.196;13.868;2023-02-20T07:08:42;101297.34;;;20.25;34.47
68399;BME280;56258;52.196;13.868;2023-02-20T07:11:10;101285.03;;;20.23;34.34
68399;BME280;56258;52.196;13.868;2023-02-20T07:13:36;101287.22;;;20.27;34.41
68399;BME280;56258;52.196;13.868;2023-02-20T07:16:03;101282.16;;;20.24;34.06
68399;BME280;56258;52.196;13.868;2023-02-20T07:18:30;101281.50;;;20.22;34.23
68399;BME280;56258;52.196;13.868;2023-02-20T07:20:57;101268.47;;;20.26;34.22
68399;BME280;56258;52.196;13.868;2023-02-20T07:23:23;101273.03;;;20.25;34.28
68399;BME280;56258;52.196;13.868;2023-02-20T07:25:50;101280.28;;;20.25;34.06
68399;BME280;56258;52.196;13.868;2023-02-20T07:28:17;101274.91;;;20.25;34.15
68399;BME280;56258;52.196;13.868;2023-02-20T07:30:45;101273.56;;;20.21;34.16
68399;BME280;56258;52.196;13.868;2023-02-20T07:33:15;101251.63;;;20.24;34.44
68399;BME280;56258;52.196;13.868;2023-02-20T07:35:42;101203.56;;;20.19;34.14
68399;BME280;56258;52.196;13.868;2023-02-20T07:38:09;101245.56;;;20.22;34.48
68399;BME280;56258;52.196;13.868;2023-02-20T07:40:35;101233.75;;;20.23;34.19
68399;BME280;56258;52.196;13.868;2023-02-20T07:43:05;101236.44;;;20.23;33.78
68399;BME280;56258;52.196;13.868;2023-02-20T07:45:32;101241.66;;;20.24;34.38
68399;BME280;56258;52.196;13.868;2023-02-20T07:47:59;101238.28;;;20.22;33.48
68399;BME280;56258;52.196;13.868;2023-02-20T07:50:25;101232.22;;;20.20;34.39
68399;BME280;56258;52.196;13.868;2023-02-20T07:52:52;101254.66;;;20.21;34.30
68399;BME280;56258;52.196;13.868;2023-02-20T07:55:18;101244.22;;;20.18;34.17
68399;BME280;56258;52.196;13.868;2023-02-20T07:57:47;101238.66;;;20.19;34.15
68399;BME280;56258;52.196;13.868;2023-02-20T08:00:16;101245.06;;;20.18;33.83
68399;BME280;56258;52.196;13.868;2023-02-20T08:02:43;101230.72;;;20.18;33.94
68399;BME280;56258;52.196;13.868;2023-02-20T08:05:10;101216.03;;;20.12;34.09
68399;BME280;56258;52.196;13.868;2023-02-20T08:07:37;101204.75;;;20.17;33.89
68399;BME280;56258;52.196;13.868;2023-02-20T08:10:05;101221.13;;;20.15;33.86
68399;BME280;56258;52.196;13.868;2023-02-20T08:12:31;101211.50;;;20.13;34.32
68399;BME280;56258;52.196;13.868;2023-02-20T08:14:58;101205.59;;;20.09;34.38
68399;BME280;56258;52.196;13.868;2023-02-20T08:17:24;101203.75;;;20.09;33.96
68399;BME280;56258;52.196;13.868;2023-02-20T08:20:03;101201.22;;;20.08;34.07
68399;BME280;56258;52.196;13.868;2023-02-20T08:22:29;101212.69;;;20.10;34.48
68399;BME280;56258;52.196;13.868;2023-02-20T08:25:07;101213.22;;;20.05;33.96
68399;BME280;56258;52.196;13.868;2023-02-20T08:27:33;101186.22;;;20.05;33.94
68399;BME280;56258;52.196;13.868;2023-02-20T08:30:06;101173.22;;;20.09;33.91
68399;BME280;56258;52.196;13.868;2023-02-20T08:32:34;101167.16;;;20.07;34.07
68399;BME280;56258;52.196;13.868;2023-02-20T08:35:00;101163.78;;;20.05;34.62
68399;BME280;56258;52.196;13.868;2023-02-20T08:37:27;101163.13;;;20.03;34.63
68399;BME280;56258;52.196;13.868;2023-02-20T08:39:54;101160.25;;;20.04;34.33
68399;BME280;56258;52.196;13.868;2023-02-20T08:42:20;101149.47;;;20.04;34.29
68399;BME280;56258;52.196;13.868;2023-02-20T08:44:47;101156.72;;;20.04;34.20
68399;BME280;56258;52.196;13.868;2023-02-20T08:47:13;101154.84;;;20.04;34.25
68399;BME280;56258;52.196;13.868;2023-02-20T08:49:40;101146.22;;;20.09;34.44
68399;BME280;56258;52.196;13.868;2023-02-20T08:52:07;101132.06;;;20.07;34.51
68399;BME280;56258;52.196;13.868;2023-02-20T08:54:33;101131.03;;;20.08;34.00
68399;BME280;56258;52.196;13.868;2023-02-20T08:57:00;101119.41;;;20.07;33.72
68399;BME280;56258;52.196;13.868;2023-02-20T08:59:30;101124.81;;;20.07;33.87
68399;BME280;56258;52.196;13.868;2023-02-20T09:01:57;101111.97;;;20.09;33.78
68399;BME280;56258;52.196;13.868;2023-02-20T09:04:23;101112.16;;;20.08;34.40
68399;BME280;56258;52.196;13.868;2023-02-20T09:06:50;101107.78;;;20.07;33.93
68399;BME280;56258;52.196;13.868;2023-02-20T09:09:16;101107.94;;;20.05;34.14
68399;BME280;56258;52.196;13.868;2023-02-20T09:11:43;101111.31;;;20.07;34.24
68399;BME280;56258;52.196;13.868;2023-02-20T09:14:10;101107.94;;;20.05;34.19
68399;BME280;56258;52.196;13.868;2023-02-20T09:16:36;101094.28;;;20.07;33.88
68399;BME280;56258;52.196;13.868;2023-02-20T09:19:08;101086.34;;;20.05;33.92
68399;BME280;56258;52.196;13.868;2023-02-20T09:21:35;101085.69;;;20.03;33.86
68399;BME280;56258;52.196;13.868;2023-02-20T09:24:04;101068.97;;;20.08;34.42
68399;BME280;56258;52.196;13.868;2023-02-20T09:26:31;101048.22;;;20.08;33.94
68399;BME280;56258;52.196;13.868;2023-02-20T09:28:57;101047.19;;;20.09;34.09
68399;BME280;56258;52.196;13.868;2023-02-20T09:31:24;101050.03;;;20.16;34.24
68399;BME280;56258;52.196;13.868;2023-02-20T09:33:51;101051.34;;;20.20;33.93
68399;BME280;56258;52.196;13.868;2023-02-20T09:36:17;101049.50;;;20.21;33.93
68399;BME280;56258;52.196;13.868;2023-02-20T09:38:44;101042.25;;;20.21;33.43
68399;BME280;56258;52.196;13.868;2023-02-20T09:44:15;101039.34;;;20.23;33.60
68399;BME280;56258;52.196;13.868;2023-02-20T09:46:46;101048.00;;;20.18;34.37
68399;BME280;56258;52.196;13.868;2023-02-20T09:49:24;101019.81;;;20.21;33.70
68399;BME280;56258;52.196;13.868;2023-02-20T09:51:59;101006.66;;;20.18;34.09
68399;BME280;56258;52.196;13.868;2023-02-20T09:54:33;101009.84;;;20.21;33.40
68399;BME280;56258;52.196;13.868;2023-02-20T09:57:15;100992.63;;;20.22;33.64
68399;BME280;56258;52.196;13.868;2023-02-20T09:59:51;100992.25;;;20.25;33.88
68399;BME280;56258;52.196;13.868;2023-02-20T10:02:41;100974.75;;;20.21;33.38
68399;BME280;56258;52.196;13.868;2023-02-20T10:05:25;100979.50;;;20.19;33.63
68399;BME280;56258;52.196;13.868;2023-02-20T10:07:53;100965.16;;;20.19;34.03
68399;BME280;56258;52.196;13.868;2023-02-20T10:10:31;100955.84;;;20.21;33.77
68399;BME280;56258;52.196;13.868;2023-02-20T10:13:28;100959.94;;;20.17;33.72
68399;BME280;56258;52.196;13.868;2023-02-20T10:16:06;100942.78;;;20.10;33.71
68399;BME280;56258;52.196;13.868;2023-02-20T10:18:46;100929.59;;;20.15;33.63
68399;BME280;56258;52.196;13.868;2023-02-20T10:24:26;100944.81;;;20.31;33.30
68399;BME280;56258;52.196;13.868;2023-02-20T10:27:17;100947.81;;;20.59;33.17
68399;BME280;56258;52.196;13.868;2023-02-20T10:29:48;100953.59;;;20.56;32.79
68399;BME280;56258;52.196;13.868;2023-02-20T10:32:26;100942.69;;;20.49;33.47
68399;BME280;56258;52.196;13.868;2023-02-20T10:35:01;100956.72;;;20.45;32.87
68399;BME280;56258;52.196;13.868;2023-02-20T10:37:37;100948.75;;;20.51;32.99
68399;BME280;56258;52.196;13.868;2023-02-20T10:40:41;100956.34;;;20.48;33.14
68399;BME280;56258;52.196;13.868;2023-02-20T10:45:56;100947.06;;;21.98;30.34
68399;BME280;56258;52.196;13.868;2023-02-20T10:48:28;100947.63;;;21.57;30.93
68399;BME280;56258;52.196;13.868;2023-02-20T10:53:56;100947.16;;;21.24;31.65
68399;BME280;56258;52.196;13.868;2023-02-20T10:56:37;100941.19;;;21.14;31.93
68399;BME280;56258;52.196;13.868;2023-02-20T11:02:02;100931.97;;;21.08;31.47
68399;BME280;56258;52.196;13.868;2023-02-20T11:04:37;100923.41;;;21.19;31.79
68399;BME280;56258;52.196;13.868;2023-02-20T11:07:11;100921.44;;;21.28;31.45
68399;BME280;56258;52.196;13.868;2023-02-20T11:09:40;100914.34;;;21.12;31.99
68399;BME280;56258;52.196;13.868;2023-02-20T11:12:07;100901.66;;;21.13;31.45
68399;BME280;56258;52.196;13.868;2023-02-20T11:14:43;100907.06;;;21.13;31.73
68399;BME280;56258;52.196;13.868;2023-02-20T11:17:14;100899.53;;;21.08;31.72
68399;BME280;56258;52.196;13.868;2023-02-20T11:19:47;100893.28;;;21.08;32.41
68399;BME280;56258;52.196;13.868;2023-02-20T11:22:16;100891.13;;;20.88;32.68
68399;BME280;56258;52.196;13.868;2023-02-20T11:24:44;100892.22;;;20.79;32.06
68399;BME280;56258;52.196;13.868;2023-02-20T11:27:24;100888.69;;;20.79;32.66
68399;BME280;56258;52.196;13.868;2023-02-20T11:30:03;100882.16;;;20.58;32.74
68399;BME280;56258;52.196;13.868;2023-02-20T11:32:41;100878.88;;;20.48;32.78
68399;BME280;56258;52.196;13.868;2023-02-20T11:37:45;100881.63;;;20.40;32.96
68399;BME280;56258;52.196;13.868;2023-02-20T11:40:28;100878.94;;;20.40;33.19
68399;BME280;56258;52.196;13.868;2023-02-20T11:43:13;100889.59;;;20.33;33.38
68399;BME280;56258;52.196;13.868;2023-02-20T11:45:41;100883.19;;;20.34;33.08
68399;BME280;56258;52.196;13.868;2023-02-20T11:48:10;100891.66;;;20.31;33.44
68399;BME280;56258;52.196;13.868;2023-02-20T11:50:43;100871.44;;;20.27;33.22
68399;BME280;56258;52.196;13.868;2023-02-20T11:55:49;100860.81;;;20.26;33.65
68399;BME280;56258;52.196;13.868;2023-02-20T11:58:31;100875.69;;;20.22;33.61
68399;BME280;56258;52.196;13.868;2023-02-20T12:00:58;100874.88;;;20.21;33.68
68399;BME280;56258;52.196;13.868;2023-02-20T12:03:32;100879.25;;;20.22;33.80
68399;BME280;56258;52.196;13.868;2023-02-20T12:06:38;100867.59;;;20.22;33.44
68399;BME280;56258;52.196;13.868;2023-02-20T12:09:11;100867.06;;;20.26;33.30
68399;BME280;56258;52.196;13.868;2023-02-20T12:11:39;100841.91;;;20.26;33.63
68399;BME280;56258;52.196;13.868;2023-02-20T12:14:11;100854.56;;;20.25;33.87
68399;BME280;56258;52.196;13.868;2023-02-20T12:17:00;100865.56;;;20.24;33.39
68399;BME280;56258;52.196;13.868;2023-02-20T12:20:06;100868.25;;;20.24;33.23
68399;BME280;56258;52.196;13.868;2023-02-20T12:22:32;100858.19;;;20.18;33.72
68399;BME280;56258;52.196;13.868;2023-02-20T12:25:13;100851.97;;;20.17;33.59
68399;BME280;56258;52.196;13.868;2023-02-20T12:31:01;100850.63;;;20.13;33.60
68399;BME280;56258;52.196;13.868;2023-02-20T12:36:42;100834.19;;;20.23;33.78
68399;BME280;56258;52.196;13.868;2023-02-20T12:39:41;100834.56;;;20.20;33.89
68399;BME280;56258;52.196;13.868;2023-02-20T12:53:02;100805.69;;;20.05;34.24
68399;BME280;56258;52.196;13.868;2023-02-20T13:06:06;100816.59;;;19.89;34.09
68399;BME280;56258;52.196;13.868;2023-02-20T13:08:36;100810.66;;;19.94;34.24
68399;BME280;56258;52.196;13.868;2023-02-20T13:11:13;100837.16;;;19.90;34.28
68399;BME280;56258;52.196;13.868;2023-02-20T13:16:36;100807.84;;;19.87;34.11
68399;BME280;56258;52.196;13.868;2023-02-20T13:21:45;100808.50;;;19.89;34.20
68399;BME280;56258;52.196;13.868;2023-02-20T13:26:49;100826.91;;;19.86;34.51
68399;BME280;56258;52.196;13.868;2023-02-20T13:29:20;100816.13;;;19.86;34.37
68399;BME280;56258;52.196;13.868;2023-02-20T13:31:54;100824.03;;;19.87;34.37
68399;BME280;56258;52.196;13.868;2023-02-20T13:36:49;100830.09;;;19.89;34.13
68399;BME280;56258;52.196;13.868;2023-02-20T13:47:02;100838.31;;;19.96;34.36
68399;BME280;56258;52.196;13.868;2023-02-20T13:52:40;100840.44;;;20.00;34.40
68399;BME280;56258;52.196;13.868;2023-02-20T14:00:32;100835.19;;;20.07;34.19
68399;BME280;56258;52.196;13.868;2023-02-20T14:05:43;100853.19;;;20.15;34.31
68399;BME280;56258;52.196;13.868;2023-02-20T14:08:17;100846.56;;;20.17;34.32
68399;BME280;56258;52.196;13.868;2023-02-20T14:10:44;100846.00;;;20.22;33.67
68399;BME280;56258;52.196;13.868;2023-02-20T14:13:23;100839.97;;;20.20;33.83
68399;BME280;56258;52.196;13.868;2023-02-20T14:16:23;100856.16;;;20.20;34.09
68399;BME280;56258;52.196;13.868;2023-02-20T14:18:58;100869.94;;;20.25;34.31
68399;BME280;56258;52.196;13.868;2023-02-20T14:21:26;100864.53;;;20.25;34.41
68399;BME280;56258;52.196;13.868;2023-02-20T14:23:55;100867.78;;;20.20;33.96
68399;BME280;56258;52.196;13.868;2023-02-20T14:26:33;100853.47;;;20.20;34.09
68399;BME280;56258;52.196;13.868;2023-02-20T14:29:00;100867.97;;;20.19;34.39
68399;BME280;56258;52.196;13.868;2023-02-20T14:31:32;100860.72;;;20.19;34.39
68399;BME280;56258;52.196;13.868;2023-02-20T14:34:10;100858.66;;;20.21;34.29